createdAt,value
2023-11-24T00:01:03.789Z,93
2023-11-24T00:02:17.193Z,93
2023-11-24T00:03:30.568Z,91.6
2023-11-24T00:04:44.910Z,92
2023-11-24T00:05:59.244Z,92.8
2023-11-24T00:07:13.588Z,93.1
2023-11-24T00:08:27.926Z,93.3
2023-11-24T00:09:42.324Z,93.4
2023-11-24T00:10:56.666Z,93.1
2023-11-24T00:12:11.000Z,93.4
2023-11-24T00:13:25.344Z,93.4
2023-11-24T00:14:39.683Z,92.9
2023-11-24T00:15:54.086Z,93.7
2023-11-24T00:17:08.439Z,93.1
2023-11-24T00:18:22.770Z,93.8
2023-11-24T00:19:36.151Z,94
2023-11-24T00:20:50.572Z,93.7
2023-11-24T00:22:04.897Z,94.3
2023-11-24T00:23:19.248Z,94.3
2023-11-24T00:24:33.569Z,93.7
2023-11-24T00:25:46.987Z,93.7
2023-11-24T00:27:01.321Z,93.4
2023-11-24T00:28:14.715Z,93.3
2023-11-24T00:29:29.047Z,93.2
2023-11-24T00:30:43.456Z,93.1
2023-11-24T00:31:57.795Z,93.3
2023-11-24T00:33:12.123Z,93
2023-11-24T00:34:26.471Z,92.9
2023-11-24T00:35:40.802Z,92.9
2023-11-24T00:36:55.212Z,93.3
2023-11-24T00:38:09.549Z,93.5
2023-11-24T00:39:23.890Z,94
2023-11-24T00:40:38.225Z,93.1
2023-11-24T00:41:52.576Z,93.2
2023-11-24T00:43:06.982Z,93.4
2023-11-24T00:44:21.309Z,94.2
2023-11-24T00:45:34.687Z,93.4
2023-11-24T00:46:48.110Z,93.5
2023-11-24T00:48:02.438Z,92.7
2023-11-24T00:49:15.818Z,92.8
2023-11-24T00:50:30.163Z,92.9
2023-11-24T00:51:44.576Z,92.5
2023-11-24T00:52:58.910Z,92.3
2023-11-24T00:54:12.310Z,93
2023-11-24T00:55:25.707Z,92.2
2023-11-24T00:56:40.051Z,91.8
2023-11-24T00:57:54.391Z,91.6
2023-11-24T00:59:08.725Z,91.8
2023-11-24T01:00:22.136Z,91.1
2023-11-24T01:01:36.455Z,91.2
2023-11-24T01:02:49.859Z,91.3
2023-11-24T01:04:04.196Z,90.2
2023-11-24T01:05:18.594Z,90.2
2023-11-24T01:06:32.000Z,89.7
2023-11-24T01:07:47.280Z,89.8
2023-11-24T01:09:01.606Z,89.8
2023-11-24T01:10:15.953Z,89.8
2023-11-24T01:11:30.348Z,89.2
2023-11-24T01:12:44.692Z,89.7
2023-11-24T01:13:59.029Z,89.4
2023-11-24T01:15:13.369Z,89.2
2023-11-24T01:16:27.713Z,89.1
2023-11-24T01:17:42.107Z,90.4
2023-11-24T01:18:56.462Z,90.9
2023-11-24T01:20:10.910Z,89.4
2023-11-24T01:21:25.253Z,90.3
2023-11-24T01:22:39.587Z,89.4
2023-11-24T01:23:53.990Z,90.2
2023-11-24T01:25:08.329Z,89.8
2023-11-24T01:26:21.693Z,90.5
2023-11-24T01:27:35.963Z,90.3
2023-11-24T01:28:50.382Z,90.3
2023-11-24T01:30:04.707Z,90.5
2023-11-24T01:31:18.981Z,90.3
2023-11-24T01:32:33.256Z,89.3
2023-11-24T01:33:47.671Z,89.4
2023-11-24T01:35:01.989Z,89.8
2023-11-24T01:36:16.272Z,90.1
2023-11-24T01:37:30.547Z,89.7
2023-11-24T01:38:44.968Z,90.3
2023-11-24T01:39:59.287Z,90.8
2023-11-24T01:41:13.567Z,90.6
2023-11-24T01:42:27.857Z,90.6
2023-11-24T01:43:42.255Z,91.8
2023-11-24T01:44:56.582Z,91.5
2023-11-24T01:46:10.855Z,91.8
2023-11-24T01:47:25.132Z,91.8
2023-11-24T01:48:39.539Z,91.6
2023-11-24T01:49:53.879Z,91.5
2023-11-24T01:51:08.156Z,91.3
2023-11-24T01:52:22.425Z,91.2
2023-11-24T01:53:36.836Z,91.3
2023-11-24T01:54:51.165Z,91.1
2023-11-24T01:56:05.450Z,91.2
2023-11-24T01:57:19.787Z,91.9
2023-11-24T01:58:34.192Z,91.6
2023-11-24T02:01:02.868Z,90.9
2023-11-24T02:02:16.266Z,91
2023-11-24T02:03:30.662Z,91
2023-11-24T02:04:45.027Z,91.1
2023-11-24T02:05:58.411Z,91.2
2023-11-24T02:07:12.752Z,91.4
2023-11-24T02:08:27.155Z,91.3
2023-11-24T02:09:41.497Z,91.2
2023-11-24T02:10:54.833Z,90.6
2023-11-24T02:12:09.130Z,90.2
2023-11-24T02:13:23.534Z,90.8
2023-11-24T02:14:37.850Z,91.6
2023-11-24T02:15:52.137Z,91
2023-11-24T02:17:06.425Z,90.9
2023-11-24T02:18:20.826Z,91.4
2023-11-24T02:19:35.143Z,91.1
2023-11-24T02:20:49.439Z,90.7
2023-11-24T02:22:03.704Z,91.4
2023-11-24T02:23:18.118Z,91.5
2023-11-24T02:24:32.453Z,91.3
2023-11-24T02:25:46.716Z,91
2023-11-24T02:27:00.995Z,91
2023-11-24T02:28:15.416Z,90.8
2023-11-24T02:29:29.732Z,91.3
2023-11-24T02:30:44.135Z,91.7
2023-11-24T02:31:58.475Z,91.4
2023-11-24T02:33:12.741Z,91.8
2023-11-24T02:34:27.154Z,91.9
2023-11-24T02:35:41.484Z,91.7
2023-11-24T02:36:55.757Z,91.7
2023-11-24T02:38:10.039Z,91.7
2023-11-24T02:39:24.447Z,91.1
2023-11-24T02:40:38.766Z,91.7
2023-11-24T02:41:53.053Z,91.6
2023-11-24T02:43:07.342Z,91.5
2023-11-24T02:44:21.740Z,91.6
2023-11-24T02:45:36.061Z,91.5
2023-11-24T02:46:50.344Z,91.8
2023-11-24T02:48:04.622Z,91.7
2023-11-24T02:49:19.040Z,91.9
2023-11-24T02:50:33.355Z,91.6
2023-11-24T02:51:47.653Z,91.6
2023-11-24T02:53:01.929Z,91.3
2023-11-24T02:55:30.665Z,92
2023-11-24T02:56:44.948Z,91.7
2023-11-24T02:57:59.228Z,91.9
2023-11-24T02:59:13.627Z,92
2023-11-24T03:00:27.942Z,92.2
2023-11-24T03:01:42.223Z,91.8
2023-11-24T03:02:56.504Z,92
2023-11-24T03:04:10.919Z,91.9
2023-11-24T03:06:39.532Z,92.1
2023-11-24T03:07:53.816Z,91.6
2023-11-24T03:09:08.212Z,91.7
2023-11-24T03:11:36.830Z,92
2023-11-24T03:12:51.098Z,92.3
2023-11-24T03:14:05.505Z,92
2023-11-24T03:15:19.826Z,91.9
2023-11-24T03:16:34.170Z,91.8
2023-11-24T03:17:47.568Z,91.4
2023-11-24T03:19:01.903Z,91.5
2023-11-24T03:20:16.248Z,91.7
2023-11-24T03:21:30.590Z,91.8
2023-11-24T03:22:44.000Z,91.7
2023-11-24T03:23:59.324Z,92.1
2023-11-24T03:25:13.669Z,92.1
2023-11-24T03:26:28.011Z,91.7
2023-11-24T03:27:42.338Z,91.3
2023-11-24T03:28:56.681Z,90.9
2023-11-24T03:30:11.081Z,91.5
2023-11-24T03:31:25.437Z,91.9
2023-11-24T03:32:39.765Z,91.7
2023-11-24T03:33:53.151Z,91.7
2023-11-24T03:35:07.564Z,92.2
2023-11-24T03:36:21.897Z,93
2023-11-24T03:37:35.311Z,93.1
2023-11-24T03:38:48.689Z,92.7
2023-11-24T03:40:03.023Z,93.2
2023-11-24T03:41:17.363Z,93.4
2023-11-24T03:42:31.698Z,93.5
2023-11-24T03:43:46.052Z,93.4
2023-11-24T03:45:00.458Z,92.8
2023-11-24T03:46:14.783Z,92.9
2023-11-24T03:47:28.202Z,93
2023-11-24T03:48:41.590Z,93.2
2023-11-24T03:49:55.913Z,93
2023-11-24T03:51:10.263Z,92.8
2023-11-24T03:52:24.605Z,93
2023-11-24T03:53:38.940Z,93
2023-11-24T03:54:53.345Z,93.3
2023-11-24T03:56:07.686Z,92.3
2023-11-24T03:57:22.011Z,91.5
2023-11-24T03:58:36.359Z,91.9
2023-11-24T03:59:50.692Z,92.3
2023-11-24T04:01:05.103Z,92.2
2023-11-24T04:02:19.431Z,91.8
2023-11-24T04:03:33.783Z,91.7
2023-11-24T04:04:47.166Z,92
2023-11-24T04:06:01.575Z,92.3
2023-11-24T04:07:15.907Z,92.3
2023-11-24T04:08:30.241Z,92.3
2023-11-24T04:09:44.585Z,92
2023-11-24T04:10:58.924Z,92.6
2023-11-24T04:12:13.322Z,92.6
2023-11-24T04:13:27.659Z,92.4
2023-11-24T04:14:41.015Z,92.7
2023-11-24T04:15:55.298Z,92.7
2023-11-24T04:17:09.699Z,93.2
2023-11-24T04:18:24.021Z,93.3
2023-11-24T04:19:38.314Z,93.6
2023-11-24T04:20:52.712Z,93.6
2023-11-24T04:22:07.119Z,93.4
2023-11-24T04:23:21.437Z,93.4
2023-11-24T04:24:35.733Z,93.5
2023-11-24T04:25:50.010Z,93.8
2023-11-24T04:27:04.413Z,94.2
2023-11-24T04:28:18.732Z,94.5
2023-11-24T04:29:33.020Z,94.5
2023-11-24T04:30:47.310Z,94.5
2023-11-24T04:32:01.712Z,94.5
2023-11-24T04:33:16.026Z,94.6
2023-11-24T04:34:30.319Z,94.6
2023-11-24T04:35:44.601Z,95
2023-11-24T04:36:59.009Z,95.2
2023-11-24T04:38:13.325Z,95.2
2023-11-24T04:39:27.617Z,95.3
2023-11-24T04:40:41.898Z,94.9
2023-11-24T04:41:56.297Z,95.1
2023-11-24T04:43:10.632Z,95.4
2023-11-24T04:44:24.912Z,95.2
2023-11-24T04:45:39.190Z,95.3
2023-11-24T04:46:53.595Z,94.8
2023-11-24T04:48:07.889Z,94.6
2023-11-24T04:49:22.176Z,94.1
2023-11-24T04:50:36.457Z,93.9
2023-11-24T04:51:50.860Z,94.1
2023-11-24T04:53:05.184Z,94.2
2023-11-24T04:54:19.454Z,93.8
2023-11-24T04:55:33.741Z,94.2
2023-11-24T04:56:48.160Z,94.4
2023-11-24T04:58:02.471Z,94.1
2023-11-24T04:59:16.764Z,94.1
2023-11-24T05:01:45.441Z,93.6
2023-11-24T05:02:59.773Z,93.9
2023-11-24T05:04:14.054Z,94.5
2023-11-24T05:05:28.000Z,93.3
2023-11-24T05:06:42.807Z,92.8
2023-11-24T05:07:57.144Z,91.2
2023-11-24T05:09:10.526Z,90.8
2023-11-24T05:10:24.854Z,91
2023-11-24T05:11:39.274Z,91.4
2023-11-24T05:12:53.615Z,91.7
2023-11-24T05:14:07.941Z,92.8
2023-11-24T05:15:22.284Z,93.5
2023-11-24T05:16:36.627Z,93.9
2023-11-24T05:17:51.025Z,94.1
2023-11-24T05:19:05.365Z,94.5
2023-11-24T05:20:19.714Z,95.2
2023-11-24T05:21:34.047Z,95.6
2023-11-24T05:22:48.392Z,96.1
2023-11-24T05:24:02.789Z,96.2
2023-11-24T05:25:17.120Z,96.6
2023-11-24T05:26:30.508Z,96.7
2023-11-24T05:27:44.845Z,96.9
2023-11-24T05:28:59.209Z,96.5
2023-11-24T05:30:13.546Z,96.5
2023-11-24T05:31:26.893Z,96.3
2023-11-24T05:32:41.179Z,96.1
2023-11-24T05:33:55.540Z,96.2
2023-11-24T05:35:09.862Z,96.2
2023-11-24T05:36:24.138Z,96.3
2023-11-24T05:37:38.357Z,96.3
2023-11-24T05:38:52.778Z,95.9
2023-11-24T05:41:21.366Z,95.6
2023-11-24T05:42:35.657Z,95
2023-11-24T05:43:50.055Z,94.8
2023-11-24T05:45:04.358Z,94.9
2023-11-24T05:46:18.651Z,94.9
2023-11-24T05:47:32.923Z,94.6
2023-11-24T05:48:47.338Z,95
2023-11-24T05:50:01.649Z,95.2
2023-11-24T05:51:16.055Z,95.1
2023-11-24T05:52:30.389Z,94.9
2023-11-24T05:53:44.655Z,94.9
2023-11-24T05:54:59.066Z,94.7
2023-11-24T05:56:13.353Z,94.3
2023-11-24T05:57:27.628Z,94.7
2023-11-24T05:58:41.910Z,94.9
2023-11-24T05:59:56.304Z,94.8
2023-11-24T06:01:10.576Z,94.9
2023-11-24T06:02:24.862Z,95
2023-11-24T06:03:39.138Z,95.2
2023-11-24T06:04:53.562Z,95.4
2023-11-24T06:06:07.876Z,95.5
2023-11-24T06:07:22.161Z,95.9
2023-11-24T06:08:36.439Z,95.9
2023-11-24T06:09:50.846Z,95.7
2023-11-24T06:11:05.123Z,95.7
2023-11-24T06:12:19.391Z,96
2023-11-24T06:13:33.678Z,96.2
2023-11-24T06:14:48.085Z,96.3
2023-11-24T06:16:02.413Z,96.1
2023-11-24T06:17:16.683Z,96.2
2023-11-24T06:18:30.962Z,96.4
2023-11-24T06:19:45.382Z,96.4
2023-11-24T06:20:59.698Z,96.4
2023-11-24T06:22:13.921Z,96.3
2023-11-24T06:23:28.156Z,96.2
2023-11-24T06:24:42.381Z,96.4
2023-11-24T06:25:56.674Z,96.2
2023-11-24T06:28:25.268Z,96.1
2023-11-24T06:30:53.805Z,95.8
2023-11-24T06:32:08.041Z,95.3
2023-11-24T06:33:22.274Z,95.2
2023-11-24T06:34:36.491Z,95
2023-11-24T06:35:50.710Z,95.1
2023-11-24T06:37:05.074Z,95.1
2023-11-24T06:38:19.360Z,95.1
2023-11-24T06:40:46.972Z,95.3
2023-11-24T06:42:01.283Z,95.2
2023-11-24T06:43:15.561Z,94.9
2023-11-24T06:44:29.851Z,94.6
2023-11-24T06:45:44.139Z,94.3
2023-11-24T06:46:58.417Z,94.7
2023-11-24T06:48:12.702Z,94.5
2023-11-24T06:49:26.985Z,94.8
2023-11-24T06:50:41.272Z,95.2
2023-11-24T06:51:55.568Z,95.4
2023-11-24T06:53:09.854Z,95.8
2023-11-24T06:54:24.141Z,97
2023-11-24T06:55:38.429Z,97.4
2023-11-24T06:56:51.769Z,98
2023-11-24T06:58:06.048Z,99
2023-11-24T06:59:20.355Z,99.2
2023-11-24T07:00:34.625Z,99.4
2023-11-24T07:01:48.912Z,99.4
2023-11-24T07:03:02.201Z,99.9
2023-11-24T07:04:16.510Z,100
2023-11-24T07:05:30.750Z,100
2023-11-24T07:06:44.984Z,100
2023-11-24T07:07:59.198Z,100
2023-11-24T07:09:13.419Z,100
2023-11-24T07:10:27.734Z,100
2023-11-24T07:11:41.968Z,100
2023-11-24T07:12:56.189Z,100
2023-11-24T07:14:10.424Z,100
2023-11-24T07:15:24.645Z,99.5
2023-11-24T07:16:38.958Z,99.2
2023-11-24T07:17:53.197Z,99.3
2023-11-24T07:19:07.415Z,99
2023-11-24T07:20:21.654Z,98.8
2023-11-24T07:21:35.872Z,98.7
2023-11-24T07:22:50.165Z,98.6
2023-11-24T07:24:04.417Z,98.5
2023-11-24T07:25:18.636Z,97.9
2023-11-24T07:26:32.859Z,97.6
2023-11-24T07:27:47.085Z,97.4
2023-11-24T07:29:01.387Z,97.2
2023-11-24T07:30:15.632Z,97.2
2023-11-24T07:31:29.856Z,96.9
2023-11-24T07:32:44.092Z,97.1
2023-11-24T07:33:58.374Z,97
2023-11-24T07:35:12.675Z,96.7
2023-11-24T07:36:26.964Z,96.5
2023-11-24T07:37:40.301Z,96.7
2023-11-24T07:38:54.589Z,96.7
2023-11-24T07:40:08.877Z,96.8
2023-11-24T07:41:23.174Z,97.3
2023-11-24T07:42:37.445Z,96.8
2023-11-24T07:43:51.725Z,96.9
2023-11-24T07:45:06.016Z,97.8
2023-11-24T07:46:20.320Z,98.2
2023-11-24T07:47:34.595Z,97.9
2023-11-24T07:48:48.889Z,97.5
2023-11-24T07:50:03.170Z,98.1
2023-11-24T07:51:17.448Z,97.7
2023-11-24T07:52:31.744Z,97.6
2023-11-24T07:53:46.037Z,98
2023-11-24T07:54:59.360Z,97.9
2023-11-24T07:56:13.644Z,97.9
2023-11-24T07:57:27.943Z,98.2
2023-11-24T07:58:42.238Z,98.2
2023-11-24T07:59:55.536Z,98.2
2023-11-24T08:01:09.755Z,98.2
2023-11-24T08:02:24.057Z,98.3
2023-11-24T08:03:38.292Z,98.7
2023-11-24T08:04:52.531Z,99.2
2023-11-24T08:06:06.746Z,99.2
2023-11-24T08:07:20.982Z,99.2
2023-11-24T08:08:35.282Z,99.3
2023-11-24T08:09:49.527Z,99.1
2023-11-24T08:11:03.877Z,99.2
2023-11-24T08:12:18.088Z,99.2
2023-11-24T08:13:32.316Z,99.1
2023-11-24T08:14:46.631Z,99.1
2023-11-24T08:16:00.873Z,99.2
2023-11-24T08:17:15.100Z,99.4
2023-11-24T08:18:29.307Z,99.5
2023-11-24T08:19:43.537Z,99.6
2023-11-24T08:20:57.842Z,99.8
2023-11-24T08:22:12.082Z,100
2023-11-24T08:23:26.311Z,100
2023-11-24T08:24:40.539Z,100
2023-11-24T08:25:54.758Z,100
2023-11-24T08:28:23.300Z,100
2023-11-24T08:29:37.527Z,100
2023-11-24T08:30:51.758Z,100
2023-11-24T08:32:05.983Z,100
2023-11-24T08:33:20.295Z,100
2023-11-24T08:34:34.522Z,100
2023-11-24T08:35:48.756Z,100
2023-11-24T08:37:02.973Z,100
2023-11-24T08:38:17.209Z,100
2023-11-24T08:39:31.508Z,100
2023-11-24T08:40:45.749Z,99.8
2023-11-24T08:42:00.126Z,99
2023-11-24T08:43:14.352Z,98.2
2023-11-24T08:44:28.564Z,98.2
2023-11-24T08:45:42.878Z,98.4
2023-11-24T08:46:57.105Z,98.1
2023-11-24T08:48:11.339Z,98
2023-11-24T08:49:25.559Z,97.3
2023-11-24T08:50:39.000Z,97
2023-11-24T08:51:54.095Z,97.2
2023-11-24T08:53:08.330Z,97.4
2023-11-24T08:54:22.560Z,97.5
2023-11-24T08:55:36.793Z,97.2
2023-11-24T08:56:51.013Z,97.1
2023-11-24T08:58:05.321Z,97.7
2023-11-24T08:59:19.558Z,97.4
2023-11-24T09:00:33.779Z,97.6
2023-11-24T09:03:02.242Z,98.2
2023-11-24T09:04:16.545Z,98.1
2023-11-24T09:05:30.784Z,97.5
2023-11-24T09:06:45.001Z,97.7
2023-11-24T09:07:59.241Z,97.9
2023-11-24T09:09:13.458Z,98.1
2023-11-24T09:10:27.754Z,98.4
2023-11-24T09:11:41.998Z,98.6
2023-11-24T09:12:56.288Z,98.1
2023-11-24T09:14:09.611Z,97.4
2023-11-24T09:15:23.915Z,97.3
2023-11-24T09:16:38.204Z,97.5
2023-11-24T09:17:52.491Z,97.6
2023-11-24T09:19:06.764Z,97.6
2023-11-24T09:20:21.047Z,97
2023-11-24T09:21:35.344Z,97
2023-11-24T09:22:49.630Z,96.6
2023-11-24T09:24:03.921Z,96.9
2023-11-24T09:25:18.202Z,97.1
2023-11-24T09:26:32.496Z,97.3
2023-11-24T09:27:46.796Z,97
2023-11-24T09:29:01.066Z,97
2023-11-24T09:30:14.397Z,96.9
2023-11-24T09:31:28.688Z,97
2023-11-24T09:33:57.276Z,96.4
2023-11-24T09:35:11.547Z,96.4
2023-11-24T09:36:25.846Z,95.8
2023-11-24T09:37:40.128Z,95.5
2023-11-24T09:38:54.420Z,94.6
2023-11-24T09:40:08.701Z,94.5
2023-11-24T09:41:22.001Z,94.7
2023-11-24T09:42:36.228Z,94.3
2023-11-24T09:43:50.531Z,94.5
2023-11-24T09:45:04.771Z,94.4
2023-11-24T09:46:19.006Z,94.8
2023-11-24T09:47:33.223Z,95.3
2023-11-24T09:48:47.448Z,95.1
2023-11-24T09:50:01.761Z,95.6
2023-11-24T09:52:30.219Z,94
2023-11-24T09:53:44.439Z,94.3
2023-11-24T09:54:58.675Z,94
2023-11-24T09:56:12.970Z,94.3
2023-11-24T09:57:27.206Z,94.2
2023-11-24T09:58:41.438Z,94.2
2023-11-24T09:59:55.674Z,94.3
2023-11-24T10:01:09.898Z,93.9
2023-11-24T10:02:24.200Z,93.5
2023-11-24T10:03:38.435Z,94.6
2023-11-24T10:04:52.666Z,94
2023-11-24T10:06:06.898Z,94.3
2023-11-24T10:07:21.119Z,94.7
2023-11-24T10:08:35.406Z,94.6
2023-11-24T10:09:49.662Z,94.9
2023-11-24T10:11:04.014Z,95.3
2023-11-24T10:12:18.229Z,95
2023-11-24T10:13:32.460Z,94.4
2023-11-24T10:14:46.763Z,94.4
2023-11-24T10:16:01.006Z,94.5
2023-11-24T10:17:15.220Z,94.5
2023-11-24T10:18:29.451Z,94.5
2023-11-24T10:19:43.674Z,94.2
2023-11-24T10:20:57.988Z,90.2
2023-11-24T10:22:12.216Z,85.6
2023-11-24T10:23:26.444Z,84.3
2023-11-24T10:24:40.671Z,82
2023-11-24T10:25:54.907Z,81.7
2023-11-24T10:28:23.445Z,78.7
2023-11-24T10:29:37.681Z,80.7
2023-11-24T10:30:51.900Z,80.5
2023-11-24T10:32:06.130Z,83.3
2023-11-24T10:33:20.428Z,85.6
2023-11-24T10:34:34.669Z,86.8
2023-11-24T10:35:48.890Z,88.4
2023-11-24T10:37:03.118Z,89.2
2023-11-24T10:38:17.339Z,89
2023-11-24T10:39:31.641Z,89.6
2023-11-24T10:40:45.894Z,88.7
2023-11-24T10:42:00.111Z,89
2023-11-24T10:43:14.349Z,89.4
2023-11-24T10:44:28.567Z,89.7
2023-11-24T10:45:42.857Z,89.1
2023-11-24T10:46:57.101Z,89.2
2023-11-24T10:48:11.335Z,88.3
2023-11-24T10:49:25.557Z,88.1
2023-11-24T10:50:39.784Z,87.6
2023-11-24T10:51:54.091Z,88.8
2023-11-24T10:53:08.329Z,88.3
2023-11-24T10:54:22.563Z,88.6
2023-11-24T10:55:36.788Z,89.5
2023-11-24T10:56:51.063Z,89.6
2023-11-24T10:58:05.361Z,88
2023-11-24T10:59:19.642Z,88.3
2023-11-24T11:00:34.059Z,87.8
2023-11-24T11:01:48.336Z,88.9
2023-11-24T11:03:02.631Z,87.3
2023-11-24T11:04:16.920Z,88.7
2023-11-24T11:05:31.209Z,90
2023-11-24T11:06:45.495Z,91.2
2023-11-24T11:07:59.783Z,91.2
2023-11-24T11:09:14.054Z,90.5
2023-11-24T11:10:28.355Z,90.2
2023-11-24T11:11:42.633Z,90.7
2023-11-24T11:12:56.931Z,91.2
2023-11-24T11:14:11.209Z,90.9
2023-11-24T11:15:25.492Z,90.8
2023-11-24T11:16:39.789Z,90.8
2023-11-24T11:17:54.070Z,89.9
2023-11-24T11:20:22.637Z,90.4
2023-11-24T11:21:36.938Z,90.3
2023-11-24T11:22:51.218Z,90.7
2023-11-24T11:24:05.514Z,91.5
2023-11-24T11:25:18.800Z,90.9
2023-11-24T11:26:33.034Z,89.3
2023-11-24T11:27:47.334Z,86.6
2023-11-24T11:29:01.568Z,85
2023-11-24T11:30:15.928Z,80.9
2023-11-24T11:31:30.160Z,79.4
2023-11-24T11:32:44.383Z,79
2023-11-24T11:33:58.686Z,77.7
2023-11-24T11:35:12.911Z,79.7
2023-11-24T11:36:27.151Z,81.4
2023-11-24T11:37:41.364Z,81.4
2023-11-24T11:38:55.595Z,79.4
2023-11-24T11:40:09.890Z,77
2023-11-24T11:41:24.146Z,76.8
2023-11-24T11:42:38.376Z,75.1
2023-11-24T11:43:52.584Z,75
2023-11-24T11:45:06.815Z,73.1
2023-11-24T11:46:21.111Z,74.8
2023-11-24T11:47:35.370Z,76.9
2023-11-24T11:48:49.579Z,76.4
2023-11-24T11:50:03.806Z,76.7
2023-11-24T11:51:18.046Z,75.9
2023-11-24T11:52:32.337Z,75.6
2023-11-24T11:53:46.580Z,74.6
2023-11-24T11:55:00.809Z,74.5
2023-11-24T11:57:29.263Z,78.6
2023-11-24T11:58:43.556Z,79.5
2023-11-24T11:59:57.803Z,79
2023-11-24T12:01:12.030Z,80.6
2023-11-24T12:02:26.260Z,78.6
2023-11-24T12:03:40.476Z,76.1
2023-11-24T12:04:54.774Z,76.5
2023-11-24T12:06:09.027Z,77.1
2023-11-24T12:07:23.247Z,78.2
2023-11-24T12:08:37.472Z,76.1
2023-11-24T12:09:51.714Z,76.7
2023-11-24T12:11:06.003Z,76.1
2023-11-24T12:12:20.255Z,78.6
2023-11-24T12:13:34.475Z,79.5
2023-11-24T12:14:48.691Z,80.7
2023-11-24T12:16:02.978Z,78.6
2023-11-24T12:17:17.288Z,79
2023-11-24T12:18:31.575Z,79.2
2023-11-24T12:19:44.928Z,80.1
2023-11-24T12:20:58.269Z,80
2023-11-24T12:22:12.548Z,79
2023-11-24T12:23:26.826Z,78.3
2023-11-24T12:25:55.405Z,81.5
2023-11-24T12:27:09.697Z,83.7
2023-11-24T12:28:23.985Z,85.1
2023-11-24T12:30:52.553Z,86.5
2023-11-24T12:32:06.834Z,85.8
2023-11-24T12:33:21.128Z,86.5
2023-11-24T12:34:35.408Z,86.6
2023-11-24T12:35:48.767Z,85.5
2023-11-24T12:37:02.100Z,85.2
2023-11-24T12:38:16.378Z,85
2023-11-24T12:39:30.659Z,84.9
2023-11-24T12:40:44.945Z,86.4
2023-11-24T12:41:59.223Z,86.8
2023-11-24T12:44:27.820Z,87.1
2023-11-24T12:45:42.091Z,87.8
2023-11-24T12:48:10.664Z,87.2
2023-11-24T12:49:24.962Z,87.3
2023-11-24T12:50:39.248Z,86.7
2023-11-24T12:51:52.611Z,86.5
2023-11-24T12:53:05.935Z,87.1
2023-11-24T12:54:20.210Z,88.2
2023-11-24T12:55:34.510Z,87.1
2023-11-24T12:56:48.780Z,87.2
2023-11-24T12:58:03.066Z,87.9
2023-11-24T12:59:17.000Z,88.2
2023-11-24T13:00:31.656Z,87.7
2023-11-24T13:01:45.941Z,88.9
2023-11-24T13:03:00.212Z,89.2
2023-11-24T13:04:13.564Z,88.4
2023-11-24T13:05:27.864Z,89.2
2023-11-24T13:06:41.194Z,90.2
2023-11-24T13:07:55.481Z,90.4
2023-11-24T13:09:09.772Z,90.3
2023-11-24T13:10:24.053Z,90.7
2023-11-24T13:11:38.348Z,89.5
2023-11-24T13:12:52.618Z,90.1
2023-11-24T13:14:06.907Z,90.1
2023-11-24T13:15:21.216Z,90.1
2023-11-24T13:16:35.480Z,90.4
2023-11-24T13:17:49.778Z,90.1
2023-11-24T13:19:03.136Z,90.1
2023-11-24T13:20:17.421Z,90
2023-11-24T13:21:31.701Z,90.1
2023-11-24T13:22:45.039Z,89.5
2023-11-24T13:23:59.333Z,90.1
2023-11-24T13:25:13.620Z,90.2
2023-11-24T13:26:27.914Z,90.2
2023-11-24T13:27:42.187Z,86.8
2023-11-24T13:28:56.467Z,86
2023-11-24T13:31:25.065Z,86
2023-11-24T13:33:53.630Z,87.1
2023-11-24T13:35:06.979Z,85.9
2023-11-24T13:36:21.273Z,85.1
2023-11-24T13:37:35.563Z,84.4
2023-11-24T13:38:48.901Z,83.1
2023-11-24T13:40:03.186Z,84.7
2023-11-24T13:41:17.475Z,84.9
2023-11-24T13:42:31.764Z,85.5
2023-11-24T13:43:46.053Z,86.6
2023-11-24T13:45:00.326Z,87.2
2023-11-24T13:46:14.609Z,86.8
2023-11-24T13:47:28.923Z,88.3
2023-11-24T13:48:43.197Z,88.2
2023-11-24T13:49:57.478Z,87.7
2023-11-24T13:51:10.842Z,88.8
2023-11-24T13:52:25.123Z,89.1
2023-11-24T13:53:39.424Z,88.2
2023-11-24T13:54:52.743Z,87.7
2023-11-24T13:56:07.039Z,88.2
2023-11-24T13:57:21.335Z,88.4
2023-11-24T13:58:35.618Z,88.3
2023-11-24T13:59:49.909Z,86.3
2023-11-24T14:01:04.193Z,87.3
2023-11-24T14:02:18.472Z,86.7
2023-11-24T14:03:32.764Z,86.7
2023-11-24T14:04:47.045Z,85.6
2023-11-24T14:06:01.325Z,84.9
2023-11-24T14:07:15.627Z,84.7
2023-11-24T14:08:29.911Z,84.7
2023-11-24T14:09:44.198Z,84.5
2023-11-24T14:10:58.477Z,84.8
2023-11-24T14:12:11.815Z,84.7
2023-11-24T14:13:26.094Z,84.2
2023-11-24T14:14:40.391Z,85.9
2023-11-24T14:15:54.692Z,88.1
2023-11-24T14:17:07.988Z,89.2
2023-11-24T14:18:22.202Z,92.2
2023-11-24T14:19:36.509Z,93.8
2023-11-24T14:20:50.738Z,93.5
2023-11-24T14:22:05.088Z,94.6
2023-11-24T14:23:19.315Z,96.1
2023-11-24T14:24:33.550Z,96.3
2023-11-24T14:25:47.855Z,96.6
2023-11-24T14:27:02.089Z,97.4
2023-11-24T14:28:16.309Z,97.7
2023-11-24T14:29:30.546Z,97.9
2023-11-24T14:30:44.761Z,98.1
2023-11-24T14:33:13.314Z,98.8
2023-11-24T14:34:27.535Z,99
2023-11-24T14:35:41.762Z,99
2023-11-24T14:36:56.003Z,99.2
2023-11-24T14:38:10.296Z,99
2023-11-24T14:39:24.529Z,98.8
2023-11-24T14:40:38.764Z,98.5
2023-11-24T14:43:07.225Z,97.8
2023-11-24T14:44:21.508Z,98
2023-11-24T14:45:35.750Z,98
2023-11-24T14:46:49.990Z,97.3
2023-11-24T14:48:04.218Z,97.7
2023-11-24T14:49:18.440Z,97.5
2023-11-24T14:50:32.732Z,97.7
2023-11-24T14:51:46.977Z,97.8
2023-11-24T14:53:01.216Z,97.5
2023-11-24T14:54:15.427Z,97.7
2023-11-24T14:55:29.653Z,97.7
2023-11-24T14:56:43.963Z,97.3
2023-11-24T14:57:58.193Z,97.8
2023-11-24T14:59:12.427Z,97.9
2023-11-24T15:00:26.651Z,98.3
2023-11-24T15:01:40.887Z,98.4
2023-11-24T15:02:55.174Z,98.1
2023-11-24T15:04:09.421Z,98.5
2023-11-24T15:05:23.654Z,98.6
2023-11-24T15:06:37.878Z,98.7
2023-11-24T15:09:06.468Z,98.4
2023-11-24T15:10:20.751Z,98.5
2023-11-24T15:11:34.077Z,98.6
2023-11-24T15:12:48.365Z,98.8
2023-11-24T15:14:02.667Z,98.4
2023-11-24T15:15:16.950Z,98.3
2023-11-24T15:16:31.233Z,98.5
2023-11-24T15:17:45.507Z,98.6
2023-11-24T15:18:59.803Z,98.8
2023-11-24T15:20:14.101Z,98.7
2023-11-24T15:21:28.379Z,98.7
2023-11-24T15:22:42.670Z,98.9
2023-11-24T15:23:56.970Z,98.9
2023-11-24T15:25:11.233Z,98.7
2023-11-24T15:26:25.535Z,98.6
2023-11-24T15:27:39.809Z,98.5
2023-11-24T15:28:53.139Z,98.4
2023-11-24T15:30:07.437Z,98.3
2023-11-24T15:31:21.736Z,97.7
2023-11-24T15:32:36.010Z,97.8
2023-11-24T15:33:49.317Z,98.1
2023-11-24T15:35:03.534Z,98.1
2023-11-24T15:36:17.843Z,97.6
2023-11-24T15:37:32.085Z,97.5
2023-11-24T15:38:46.299Z,97.3
2023-11-24T15:40:00.533Z,97.1
2023-11-24T15:41:14.752Z,97
2023-11-24T15:42:29.067Z,97.2
2023-11-24T15:43:43.292Z,97.4
2023-11-24T15:44:57.532Z,97.5
2023-11-24T15:47:25.985Z,96.9
2023-11-24T15:48:40.286Z,96.5
2023-11-24T15:49:54.518Z,96.5
2023-11-24T15:51:08.872Z,96.4
2023-11-24T15:52:23.000Z,96
2023-11-24T15:53:37.326Z,96.5
2023-11-24T15:54:51.634Z,96.3
2023-11-24T15:56:05.861Z,96.3
2023-11-24T15:58:34.379Z,96
2023-11-24T15:59:48.656Z,96.1
2023-11-24T16:01:03.066Z,96.2
2023-11-24T16:02:17.361Z,96.2
2023-11-24T16:03:31.641Z,96.1
2023-11-24T16:04:45.921Z,95
2023-11-24T16:06:00.272Z,95.2
2023-11-24T16:07:14.524Z,94.9
2023-11-24T16:08:28.741Z,94.9
2023-11-24T16:09:43.027Z,95.2
2023-11-24T16:10:57.420Z,95.3
2023-11-24T16:12:11.786Z,95.2
2023-11-24T16:14:40.389Z,94.5
2023-11-24T16:15:54.659Z,94.5
2023-11-24T16:17:09.078Z,94.9
2023-11-24T16:18:23.393Z,94.9
2023-11-24T16:19:37.674Z,94.4
2023-11-24T16:20:51.959Z,94.5
2023-11-24T16:22:06.374Z,94.8
2023-11-24T16:23:20.633Z,95.4
2023-11-24T16:24:34.928Z,95.4
2023-11-24T16:25:49.211Z,95.6
2023-11-24T16:27:03.619Z,95.4
2023-11-24T16:28:17.942Z,95.4
2023-11-24T16:29:32.220Z,95.3
2023-11-24T16:30:46.622Z,95.1
2023-11-24T16:32:00.911Z,94.8
2023-11-24T16:33:15.306Z,95
2023-11-24T16:34:29.643Z,95.1
2023-11-24T16:35:43.921Z,95.1
2023-11-24T16:36:58.237Z,95.2
2023-11-24T16:38:12.520Z,95.4
2023-11-24T16:39:26.934Z,95.1
2023-11-24T16:40:41.255Z,94.7
2023-11-24T16:41:55.537Z,94.5
2023-11-24T16:43:09.831Z,94.5
2023-11-24T16:44:24.231Z,94.6
2023-11-24T16:45:38.558Z,94.2
2023-11-24T16:46:52.827Z,94.6
2023-11-24T16:48:07.165Z,94.3
2023-11-24T16:49:21.431Z,94.6
2023-11-24T16:50:35.788Z,94.8
2023-11-24T16:51:50.059Z,94.7
2023-11-24T16:53:04.300Z,94.9
2023-11-24T16:54:18.578Z,94.7
2023-11-24T16:55:32.985Z,94.9
2023-11-24T16:56:47.314Z,95.1
2023-11-24T16:58:01.591Z,94.9
2023-11-24T16:59:15.870Z,95.2
2023-11-24T17:00:30.278Z,95.1
2023-11-24T17:01:44.591Z,95.3
2023-11-24T17:02:58.890Z,94.9
2023-11-24T17:04:13.161Z,94
2023-11-24T17:05:27.563Z,93.8
2023-11-24T17:06:41.898Z,93.6
2023-11-24T17:07:56.184Z,93.4
2023-11-24T17:09:10.455Z,93.5
2023-11-24T17:10:24.863Z,93.3